Time;durP1;ratioP1;P1;durP2;ratioP2;P2;SDS_P1;SDS_P2;PMS_P1;PMS_P2;Temp;Humidity;BMP_temperature;BMP_pressure;BME280_temperature;BME280_humidity;BME280_pressure;Samples;Min_cycle;Max_cycle;Signal;HPM_P1;HPM_P2
2022/05/11 00:01:57;;;;;;;9.55;5.67;;;;;;;7.44;58.94;100993.05;1699591;83;21069;-90
2022/05/11 00:04:24;;;;;;;10.90;5.92;;;;;;;7.41;59.10;100995.33;1698554;83;21894;-88
2022/05/11 00:06:51;;;;;;;8.80;5.92;;;;;;;7.37;59.48;100996.37;1698051;83;20898;-88
2022/05/11 00:09:19;;;;;;;13.58;6.65;;;;;;;7.31;59.53;100991.85;1698180;84;20942;-90
2022/05/11 00:11:45;;;;;;;11.43;5.92;;;;;;;7.21;59.69;100994.83;1698502;84;21451;-90
2022/05/11 00:14:12;;;;;;;13.10;6.17;;;;;;;7.13;59.83;100992.13;1698033;84;20883;-89
2022/05/11 00:16:40;;;;;;;9.43;4.83;;;;;;;7.03;59.93;100996.87;1698176;84;21257;-90
2022/05/11 00:19:07;;;;;;;11.18;5.00;;;;;;;6.92;59.88;100997.75;1698210;84;21052;-89
2022/05/11 00:21:34;;;;;;;11.20;5.75;;;;;;;6.82;59.80;100999.37;1698030;83;20925;-89
2022/05/11 00:24:00;;;;;;;11.00;5.47;;;;;;;6.73;60.16;100991.91;1698346;84;20919;-90
2022/05/11 00:26:26;;;;;;;9.85;6.05;;;;;;;6.67;60.32;100999.98;1699061;84;21562;-87
2022/05/11 00:28:54;;;;;;;11.30;5.12;;;;;;;6.60;60.13;100996.77;1699649;84;21142;-88
2022/05/11 00:31:21;;;;;;;9.35;5.05;;;;;;;6.54;59.96;100994.38;1698289;84;20950;-89
2022/05/11 00:33:49;;;;;;;8.93;4.53;;;;;;;6.51;60.05;100989.73;1698223;84;20891;-89
2022/05/11 00:36:15;;;;;;;11.40;4.87;;;;;;;6.49;59.88;100991.53;1698019;84;20906;-89
2022/05/11 00:38:44;;;;;;;7.70;3.70;;;;;;;6.46;59.88;100992.50;1698131;83;20918;-91
2022/05/11 00:41:11;;;;;;;8.13;3.60;;;;;;;6.44;59.88;100989.94;1698344;84;21237;-89
2022/05/11 00:43:42;;;;;;;9.68;4.08;;;;;;;6.44;59.91;100990.41;1698404;83;20950;-89
2022/05/11 00:46:39;;;;;;;8.75;4.03;;;;;;;6.42;59.71;100990.91;1696283;83;21082;-90
2022/05/11 00:52:02;;;;;;;6.55;4.35;;;;;;;6.33;59.71;100992.55;1634797;87;21485;-89
2022/05/11 00:54:30;;;;;;;7.20;4.00;;;;;;;6.29;59.89;100994.87;1615976;88;21871;-89
2022/05/11 00:57:01;;;;;;;5.28;3.80;;;;;;;6.22;59.95;100988.60;1616038;88;21030;-88
2022/05/11 00:59:34;;;;;;;10.68;4.08;;;;;;;6.17;60.13;100988.36;1616335;88;20983;-89
2022/05/11 01:02:04;;;;;;;5.80;3.42;;;;;;;6.13;60.17;100982.39;1616511;88;21023;-90
2022/05/11 01:04:32;;;;;;;6.70;4.25;;;;;;;6.09;60.27;100979.95;1616425;88;21504;-90
2022/05/11 01:06:59;;;;;;;7.10;3.92;;;;;;;6.03;60.15;100986.70;1616270;88;21822;-89
2022/05/11 01:09:25;;;;;;;8.43;4.40;;;;;;;5.95;60.23;100984.36;1615969;88;20935;-89
2022/05/11 01:11:55;;;;;;;10.03;4.50;;;;;;;5.87;60.63;100982.43;1616176;88;20955;-89
2022/05/11 01:14:25;;;;;;;6.42;3.25;;;;;;;5.80;60.84;100977.89;1616534;88;20959;-88
2022/05/11 01:16:51;;;;;;;5.80;3.15;;;;;;;5.75;61.00;100981.11;1616989;88;21065;-86
2022/05/11 01:19:35;;;;;;;9.60;3.12;;;;;;;5.72;61.04;100977.32;1618334;88;21230;-84
2022/05/11 01:22:42;;;;;;;4.28;2.55;;;;;;;5.69;61.11;100978.28;1618185;88;20899;-85
2022/05/11 01:25:09;;;;;;;11.12;3.83;;;;;;;5.66;61.20;100978.82;1619305;85;21011;-85
2022/05/11 01:27:40;;;;;;;8.10;3.67;;;;;;;5.65;61.36;100975.80;1617688;88;20931;-87
2022/05/11 01:30:13;;;;;;;8.23;3.40;;;;;;;5.63;61.15;100973.28;1658582;86;21066;-86
2022/05/11 01:32:43;;;;;;;18.98;9.93;;;;;;;5.58;60.92;100968.23;1657954;84;21263;-86
2022/05/11 01:35:42;;;;;;;7.28;3.35;;;;;;;5.54;60.70;100974.89;1651838;87;20995;-85
2022/05/11 01:38:40;;;;;;;6.33;3.52;;;;;;;5.49;60.71;100968.55;1649989;86;21037;-87
2022/05/11 01:41:09;;;;;;;7.25;3.05;;;;;;;5.43;60.90;100967.44;1650614;87;21042;-89
2022/05/11 01:43:38;;;;;;;4.05;3.00;;;;;;;5.35;61.03;100965.08;1664053;85;20950;-89
2022/05/11 01:46:07;;;;;;;8.48;3.15;;;;;;;5.30;61.11;100962.23;1679028;85;21261;-89
2022/05/11 01:48:34;;;;;;;8.10;2.85;;;;;;;5.24;61.13;100959.37;1678995;85;21471;-90
2022/05/11 01:51:00;;;;;;;4.42;2.52;;;;;;;5.22;61.48;100962.93;1700892;84;20982;-89
2022/05/11 01:53:28;;;;;;;7.28;3.15;;;;;;;5.20;61.59;100961.66;1700400;84;20949;-89
2022/05/11 01:55:55;;;;;;;7.67;3.87;;;;;;;5.17;61.80;100953.98;1701256;84;20898;-90
2022/05/11 01:58:22;;;;;;;7.95;3.67;;;;;;;5.16;61.94;100959.63;1700841;84;21261;-88
2022/05/11 02:00:50;;;;;;;5.90;3.05;;;;;;;5.14;62.10;100954.93;1700969;84;20937;-89
2022/05/11 02:03:20;;;;;;;6.10;3.50;;;;;;;5.14;62.30;100956.69;1701182;83;21045;-89
2022/05/11 02:08:36;;;;;;;6.25;3.60;;;;;;;5.19;62.43;100961.28;1701492;83;20886;-86
2022/05/11 02:11:04;;;;;;;6.40;3.65;;;;;;;5.18;62.27;100953.94;1701293;84;21133;-90
2022/05/11 02:13:32;;;;;;;6.83;3.80;;;;;;;5.19;62.45;100956.08;1700690;84;20934;-90
2022/05/11 02:15:59;;;;;;;5.67;4.00;;;;;;;5.19;62.57;100950.88;1700915;84;20942;-89
2022/05/11 02:18:25;;;;;;;5.85;3.77;;;;;;;5.19;62.42;100953.02;1700774;84;20902;-90
2022/05/11 02:20:52;;;;;;;10.53;4.50;;;;;;;5.15;62.58;100947.52;1700900;84;21031;-90
2022/05/11 02:23:20;;;;;;;6.33;3.45;;;;;;;5.11;62.80;100948.55;1701181;84;21870;-89
2022/05/11 02:25:48;;;;;;;6.05;4.15;;;;;;;5.06;63.11;100948.27;1700657;84;21034;-90
2022/05/11 02:28:15;;;;;;;10.03;3.80;;;;;;;5.02;63.50;100949.27;1700677;84;21377;-89
2022/05/11 02:30:43;;;;;;;8.78;3.62;;;;;;;4.95;63.86;100942.95;1701010;84;21530;-89
2022/05/11 02:33:10;;;;;;;5.87;3.25;;;;;;;4.91;64.22;100938.78;1700820;84;21453;-90
2022/05/11 02:35:37;;;;;;;6.05;3.60;;;;;;;4.87;63.83;100937.17;1700649;83;21195;-91
2022/05/11 02:38:09;;;;;;;7.47;3.95;;;;;;;4.87;63.77;100930.67;1701106;83;20926;-90
2022/05/11 02:40:38;;;;;;;10.15;4.75;;;;;;;4.88;63.75;100935.41;1700247;84;20883;-91
2022/05/11 02:43:04;;;;;;;6.10;3.47;;;;;;;4.90;63.79;100937.06;1700433;83;21033;-89
2022/05/11 02:45:33;;;;;;;6.08;3.67;;;;;;;4.95;63.81;100940.36;1698125;84;20906;-89
2022/05/11 02:48:02;;;;;;;6.12;3.58;;;;;;;5.00;63.88;100938.91;1697890;84;21157;-89
2022/05/11 02:50:34;;;;;;;7.80;3.45;;;;;;;5.06;63.70;100941.77;1697810;84;20978;-89
2022/05/11 02:53:08;;;;;;;7.00;3.85;;;;;;;5.08;63.47;100937.38;1698194;84;20887;-88
2022/05/11 02:55:30;;;;;;;5.90;3.72;;;;;;;5.12;63.32;100933.79;1698074;83;21005;-89
2022/05/11 02:57:57;;;;;;;10.60;3.17;;;;;;;5.17;63.10;100943.58;1699402;84;20890;-89
2022/05/11 03:00:23;;;;;;;5.47;2.92;;;;;;;5.18;62.76;100942.23;1700786;84;21252;-88
2022/05/11 03:02:50;;;;;;;5.00;3.35;;;;;;;5.19;62.55;100942.63;1700850;82;21193;-89
2022/05/11 03:05:16;;;;;;;13.48;3.70;;;;;;;5.20;62.52;100940.87;1700811;82;20949;-87
2022/05/11 03:07:43;;;;;;;6.90;3.37;;;;;;;5.20;62.65;100947.37;1701261;81;20977;-89
2022/05/11 03:10:10;;;;;;;8.28;3.33;;;;;;;5.22;62.73;100946.03;1701388;82;20867;-90
2022/05/11 03:12:37;;;;;;;11.38;3.37;;;;;;;5.25;62.74;100943.34;1698754;84;21184;-91
2022/05/11 03:15:05;;;;;;;13.32;3.67;;;;;;;5.30;63.02;100946.64;1698065;84;20926;-89
2022/05/11 03:17:32;;;;;;;11.18;4.42;;;;;;;5.39;63.18;100948.93;1697960;84;20890;-88
2022/05/11 03:19:59;;;;;;;6.42;3.12;;;;;;;5.50;63.15;100944.67;1698044;84;21527;-90
2022/05/11 03:22:25;;;;;;;8.65;3.67;;;;;;;5.61;63.07;100947.77;1697980;84;20894;-89
2022/05/11 03:24:51;;;;;;;8.80;3.92;;;;;;;5.72;63.18;100950.84;1698250;84;21213;-89
2022/05/11 03:27:18;;;;;;;8.78;4.20;;;;;;;5.86;63.01;100949.52;1697950;83;21029;-89
2022/05/11 03:29:47;;;;;;;12.35;5.47;;;;;;;5.98;62.96;100953.00;1697977;84;21017;-89
2022/05/11 03:34:59;;;;;;;14.65;5.15;;;;;;;6.25;62.59;100960.72;1698016;84;20923;-89
2022/05/11 03:37:26;;;;;;;19.62;5.70;;;;;;;6.38;62.22;100959.36;1697980;84;21210;-89
2022/05/11 03:39:55;;;;;;;16.12;5.92;;;;;;;6.51;62.30;100967.12;1699019;84;21080;-89
2022/05/11 03:44:29;;;;;;;22.77;7.03;;;;;;;6.77;61.99;100968.74;1816632;79;25714;-88
2022/05/11 03:46:56;;;;;;;23.98;8.85;;;;;;;6.83;61.82;100963.30;1789939;80;20943;-88
2022/05/11 03:49:22;;;;;;;31.65;10.32;;;;;;;6.97;61.44;100965.82;1790659;80;21960;-88
2022/05/11 03:51:50;;;;;;;24.18;12.37;;;;;;;7.09;60.78;100967.92;1790484;80;20979;-88
2022/05/11 03:54:17;;;;;;;22.95;9.15;;;;;;;7.21;60.65;100972.66;1789802;80;20892;-88
2022/05/11 03:56:44;;;;;;;20.10;8.40;;;;;;;7.37;59.96;100970.73;1789579;80;20896;-89
2022/05/11 03:59:10;;;;;;;17.48;7.30;;;;;;;7.51;59.45;100974.92;1790212;80;20858;-89
2022/05/11 04:01:37;;;;;;;22.75;7.60;;;;;;;7.67;59.00;100969.93;1789583;80;21417;-89
2022/05/11 04:04:04;;;;;;;23.77;6.55;;;;;;;7.83;58.56;100970.13;1789610;80;21050;-88
2022/05/11 04:06:32;;;;;;;20.60;6.85;;;;;;;8.00;58.09;100970.21;1789322;80;20848;-92
2022/05/11 04:08:59;;;;;;;19.32;6.00;;;;;;;8.17;57.56;100970.79;1789510;80;20912;-89
2022/05/11 04:11:26;;;;;;;13.95;5.28;;;;;;;8.35;56.93;100968.28;1789777;80;20915;-90
2022/05/11 04:13:54;;;;;;;20.25;5.33;;;;;;;8.55;56.37;100970.02;1789899;80;21205;-90
2022/05/11 04:16:21;;;;;;;9.15;4.30;;;;;;;8.83;56.24;100961.28;1789646;80;20849;-90
2022/05/11 04:18:47;;;;;;;7.42;3.15;;;;;;;9.26;55.69;100965.75;1789704;80;21389;-90
2022/05/11 04:21:14;;;;;;;4.20;3.05;;;;;;;9.88;54.24;100960.05;1790331;80;20919;-90
2022/05/11 04:23:41;;;;;;;7.87;3.33;;;;;;;10.57;51.80;100969.53;1789877;80;21305;-92
2022/05/11 04:26:09;;;;;;;4.72;2.47;;;;;;;11.27;50.57;100968.70;1789759;80;21112;-90
2022/05/11 04:28:36;;;;;;;12.65;4.12;;;;;;;11.92;48.12;100964.95;1790630;79;20975;-89
2022/05/11 04:31:08;;;;;;;10.65;3.20;;;;;;;12.52;46.42;100967.86;1789783;80;20856;-87
2022/05/11 04:33:34;;;;;;;7.67;2.52;;;;;;;13.10;44.70;100965.45;1790264;80;20857;-90
2022/05/11 04:36:01;;;;;;;7.25;2.62;;;;;;;13.62;42.87;100963.81;1790544;79;20923;-90
2022/05/11 04:38:28;;;;;;;7.97;2.90;;;;;;;14.04;42.01;100969.75;1735929;80;21232;-88
2022/05/11 04:40:54;;;;;;;6.47;2.80;;;;;;;14.45;40.80;100966.00;1791381;80;20884;-89
2022/05/11 04:43:20;;;;;;;6.15;2.62;;;;;;;14.87;40.74;100974.03;1787969;80;20928;-91
2022/05/11 04:45:47;;;;;;;6.15;1.92;;;;;;;15.27;40.02;100972.42;1784799;80;20978;-88
2022/05/11 04:48:17;;;;;;;8.65;2.67;;;;;;;15.64;39.09;100972.78;1784681;80;20979;-89
2022/05/11 04:50:45;;;;;;;6.30;2.35;;;;;;;16.03;38.16;100967.61;1784756;80;21819;-90
2022/05/11 04:53:14;;;;;;;4.33;2.15;;;;;;;16.44;37.74;100960.02;1784446;80;20864;-89
2022/05/11 04:55:42;;;;;;;5.25;2.15;;;;;;;16.80;36.20;100964.20;1783917;80;21346;-90
2022/05/11 04:58:08;;;;;;;8.33;2.47;;;;;;;17.02;35.24;100961.98;1784022;80;21012;-91
2022/05/11 05:00:36;;;;;;;6.53;1.75;;;;;;;17.15;34.88;100964.47;1784022;80;20995;-90
2022/05/11 05:03:09;;;;;;;7.87;3.00;;;;;;;17.28;34.54;100966.47;1784072;80;21132;-90
2022/05/11 05:05:36;;;;;;;3.98;1.60;;;;;;;17.46;34.83;100968.06;1784330;80;20987;-91
2022/05/11 05:08:04;;;;;;;6.17;1.05;;;;;;;17.56;33.45;100966.34;1783867;80;20860;-91
2022/05/11 05:10:33;;;;;;;4.72;1.20;;;;;;;17.58;31.47;100969.67;1783889;80;20904;-91
2022/05/11 05:13:03;;;;;;;2.25;1.07;;;;;;;17.56;31.09;100967.67;1784205;80;20860;-92
2022/05/11 05:15:31;;;;;;;3.30;0.88;;;;;;;17.60;30.61;100969.06;1784254;80;21258;-90
2022/05/11 05:17:57;;;;;;;2.47;1.00;;;;;;;17.68;31.10;100967.11;1784691;80;20928;-91
2022/05/11 05:20:24;;;;;;;4.05;0.70;;;;;;;17.82;30.90;100964.64;1784150;80;20888;-89
2022/05/11 05:22:51;;;;;;;8.80;1.12;;;;;;;17.93;30.41;100961.91;1784038;80;20951;-92
2022/05/11 05:25:17;;;;;;;4.22;1.10;;;;;;;17.94;30.36;100960.95;1784184;80;20971;-90
2022/05/11 05:27:44;;;;;;;1.92;1.15;;;;;;;17.97;30.50;100964.66;1784505;80;21117;-91
2022/05/11 05:32:57;;;;;;;2.60;0.62;;;;;;;18.02;29.59;100962.44;1784938;80;20920;-92
2022/05/11 05:35:27;;;;;;;3.30;0.90;;;;;;;17.91;29.27;100959.03;1784654;80;20881;-90
2022/05/11 05:37:54;;;;;;;2.87;0.72;;;;;;;17.73;29.76;100961.41;1753960;80;20849;-90
2022/05/11 05:40:20;;;;;;;3.25;0.93;;;;;;;17.54;28.61;100964.77;1784550;80;21589;-90
2022/05/11 05:42:47;;;;;;;4.53;0.90;;;;;;;17.31;29.25;100967.52;1783904;80;21650;-90
2022/05/11 05:45:14;;;;;;;4.97;1.30;;;;;;;17.13;28.67;100965.91;1784143;80;20892;-91
2022/05/11 05:47:42;;;;;;;2.77;1.37;;;;;;;16.91;28.99;100965.98;1784232;80;21005;-90
2022/05/11 05:50:09;;;;;;;3.62;1.12;;;;;;;16.78;29.18;100969.61;1783935;80;20919;-90
2022/05/11 05:52:36;;;;;;;3.02;1.12;;;;;;;16.66;29.48;100961.31;1784426;80;21104;-90
2022/05/11 05:55:03;;;;;;;3.00;1.10;;;;;;;16.61;29.90;100965.28;1783761;80;21361;-91
2022/05/11 05:57:30;;;;;;;6.55;1.27;;;;;;;16.65;30.16;100964.94;1783915;80;20856;-90
2022/05/11 05:59:58;;;;;;;2.65;1.20;;;;;;;16.65;29.65;100973.34;1784124;80;20971;-91
2022/05/11 06:02:27;;;;;;;3.47;1.77;;;;;;;16.60;29.91;100961.80;1784192;80;21070;-89
2022/05/11 06:04:55;;;;;;;4.17;0.80;;;;;;;16.62;30.08;100961.69;1784245;80;21043;-90
2022/05/11 06:07:22;;;;;;;3.52;0.98;;;;;;;16.58;30.28;100963.27;1785105;80;20916;-89
2022/05/11 06:09:50;;;;;;;3.22;0.80;;;;;;;16.58;30.64;100968.56;1785376;80;20963;-89
2022/05/11 06:12:16;;;;;;;2.08;0.98;;;;;;;16.58;30.45;100971.67;1785048;80;20979;-89
2022/05/11 06:14:43;;;;;;;3.92;1.30;;;;;;;16.60;30.49;100967.09;1785641;80;20844;-90
2022/05/11 06:17:20;;;;;;;4.58;0.90;;;;;;;16.65;31.73;100975.98;1785344;80;21238;-88
2022/05/11 06:19:46;;;;;;;3.90;1.25;;;;;;;16.73;31.50;100977.55;1785916;80;20892;-88
2022/05/11 06:22:13;;;;;;;5.30;1.98;;;;;;;16.78;31.17;100974.05;1786199;80;20888;-89
2022/05/11 06:24:42;;;;;;;2.77;1.00;;;;;;;16.83;30.44;100979.86;1786236;80;20922;-88
2022/05/11 06:27:21;;;;;;;2.92;0.85;;;;;;;16.91;30.55;100982.72;1755120;82;20886;-89
2022/05/11 06:29:56;;;;;;;5.53;0.98;;;;;;;17.00;30.20;100975.83;1754295;82;21186;-88
2022/05/11 06:32:22;;;;;;;5.87;1.20;;;;;;;17.07;30.71;100977.01;1753861;82;20886;-90
2022/05/11 06:34:56;;;;;;;3.40;1.50;;;;;;;17.26;30.83;100972.37;1753708;82;21358;-88
2022/05/11 06:37:21;;;;;;;4.37;1.22;;;;;;;17.49;30.56;100974.92;1752752;82;20938;-89
2022/05/11 06:39:48;;;;;;;10.60;1.42;;;;;;;17.79;30.81;100982.95;1753841;82;20972;-88
2022/05/11 06:42:15;;;;;;;2.90;1.42;;;;;;;18.04;29.32;100977.41;1754271;82;21537;-89
2022/05/11 06:44:42;;;;;;;5.58;1.02;;;;;;;18.20;29.09;100973.28;1729441;82;20900;-88
2022/05/11 06:47:10;;;;;;;2.83;1.10;;;;;;;18.42;28.71;100974.08;1755257;81;21007;-89
2022/05/11 06:49:37;;;;;;;3.35;1.62;;;;;;;18.68;28.34;100969.63;1754472;81;20935;-88
2022/05/11 06:52:05;;;;;;;3.58;1.12;;;;;;;19.03;28.00;100971.79;1754250;82;20908;-87
2022/05/11 07:00:06;;;;;;;3.62;1.30;;;;;;;20.22;27.00;100943.91;1786212;80;21002;-88
2022/05/11 07:02:34;;;;;;;7.15;1.47;;;;;;;20.68;26.51;100947.48;1786995;80;20896;-88
2022/05/11 07:05:01;;;;;;;5.08;1.30;;;;;;;21.11;25.57;100942.41;1786835;80;20927;-90
2022/05/11 07:07:28;;;;;;;4.42;1.10;;;;;;;21.38;24.96;100947.30;1787097;80;21397;-90
2022/05/11 07:09:56;;;;;;;7.47;1.60;;;;;;;21.67;24.72;100944.38;1786658;80;20982;-87
2022/05/11 07:12:46;;;;;;;4.97;1.45;;;;;;;22.09;24.05;100938.28;1786833;80;20896;-86
2022/05/11 07:14:59;;;;;;;2.37;0.93;;;;;;;22.49;24.02;100938.14;1782822;80;20975;-87
2022/05/11 07:17:34;;;;;;;6.12;1.35;;;;;;;22.95;23.43;100935.92;1786920;78;21151;-86
2022/05/11 07:20:06;;;;;;;1.37;1.00;;;;;;;23.34;23.34;100932.61;1759345;79;21124;-88
2022/05/11 07:22:33;;;;;;;5.28;1.80;;;;;;;23.73;23.33;100931.40;1787708;78;20915;-87
2022/05/11 07:25:00;;;;;;;2.87;1.47;;;;;;;24.08;21.63;100925.80;1787081;78;20837;-88
2022/05/11 07:27:29;;;;;;;5.35;1.50;;;;;;;24.21;21.41;100926.08;1786939;78;21197;-88
2022/05/11 07:29:55;;;;;;;5.28;1.30;;;;;;;24.35;21.22;100907.94;1787218;78;21393;-87
2022/05/11 07:32:23;;;;;;;5.50;1.52;;;;;;;24.47;19.90;100912.91;1787236;78;21241;-88
2022/05/11 07:34:50;;;;;;;2.95;1.22;;;;;;;24.55;20.49;100912.91;1786961;80;20900;-88
2022/05/11 07:37:17;;;;;;;3.70;0.95;;;;;;;24.76;21.01;100909.57;1758055;80;21416;-89
2022/05/11 07:39:43;;;;;;;5.15;1.02;;;;;;;25.06;20.14;100913.22;1786303;80;20951;-90
2022/05/11 07:42:10;;;;;;;1.85;0.95;;;;;;;25.35;19.38;100906.30;1786247;80;20848;-90
2022/05/11 07:44:38;;;;;;;3.22;1.30;;;;;;;25.53;19.02;100905.95;1786173;80;21276;-89
2022/05/11 07:47:05;;;;;;;4.83;1.70;;;;;;;25.64;18.90;100911.70;1786260;80;20841;-88
2022/05/11 07:49:32;;;;;;;2.27;1.40;;;;;;;25.72;19.17;100909.94;1786028;80;20939;-89
2022/05/11 07:51:59;;;;;;;4.00;1.40;;;;;;;25.71;19.12;100906.95;1786404;80;20998;-89
2022/05/11 07:54:25;;;;;;;4.12;2.05;;;;;;;25.76;18.62;100901.84;1786560;80;21006;-87
2022/05/11 07:59:57;;;;;;;4.85;3.85;;;;;;;25.92;18.94;100896.82;1787318;78;20983;-89
2022/05/11 08:02:31;;;;;;;4.60;1.80;;;;;;;26.15;18.37;100895.38;1786970;80;20822;-86
2022/05/11 08:05:01;;;;;;;25.48;2.42;;;;;;;26.43;17.84;100899.00;1786998;80;20939;-87
2022/05/11 08:07:48;;;;;;;11.18;1.87;;;;;;;26.60;17.69;100890.75;1737563;78;21020;-90
2022/05/11 08:10:22;;;;;;;3.65;1.20;;;;;;;26.75;17.28;100883.46;1702467;82;21245;-90
2022/05/11 08:12:49;;;;;;;3.90;1.02;;;;;;;26.94;17.67;100881.14;1694380;84;20960;-89
2022/05/11 08:15:21;;;;;;;2.47;1.02;;;;;;;27.03;17.12;100887.53;1724953;82;20900;-90
2022/05/11 08:17:49;;;;;;;6.70;1.67;;;;;;;27.08;16.89;100891.02;1694593;84;20932;-89
2022/05/11 08:20:25;;;;;;;2.67;1.35;;;;;;;27.03;16.32;100878.63;1724759;83;21026;-89
2022/05/11 08:22:53;;;;;;;2.47;1.75;;;;;;;26.86;16.33;100877.56;1693819;84;21248;-91
2022/05/11 08:25:22;;;;;;;31.02;4.12;;;;;;;26.85;16.58;100875.88;1723175;83;20928;-90
2022/05/11 08:27:49;;;;;;;3.33;1.22;;;;;;;27.08;17.30;100872.17;1692894;84;20913;-92
2022/05/11 08:33:19;;;;;;;3.55;1.65;;;;;;;27.21;16.99;100866.92;1692856;84;20940;-91
2022/05/11 08:35:47;;;;;;;8.23;1.10;;;;;;;27.17;16.98;100868.30;1723935;83;21257;-89
2022/05/11 08:38:14;;;;;;;6.65;1.50;;;;;;;27.04;16.28;100868.20;1694867;84;20955;-88
2022/05/11 08:41:01;;;;;;;3.98;1.20;;;;;;;26.87;17.56;100865.76;1725105;82;20872;-90
2022/05/11 08:43:31;;;;;;;2.80;1.20;;;;;;;26.91;16.91;100857.31;1674228;84;20999;-89
2022/05/11 08:46:38;;;;;;;3.15;1.10;;;;;;;27.05;17.36;100867.16;1735951;82;20937;-91
2022/05/11 08:49:26;;;;;;;2.87;0.88;;;;;;;27.13;16.41;100850.87;1736131;80;21047;-90
2022/05/11 08:52:01;;;;;;;4.78;1.10;;;;;;;26.87;16.46;100849.61;1736649;82;20905;-88
2022/05/11 08:54:47;;;;;;;5.85;1.20;;;;;;;26.40;17.23;100848.81;1736100;82;21425;-88
2022/05/11 08:57:20;;;;;;;2.02;1.72;;;;;;;26.11;17.24;100845.70;1736977;81;20877;-90
2022/05/11 08:59:46;;;;;;;2.98;1.65;;;;;;;25.91;17.46;100846.28;1737220;82;21027;-90
2022/05/11 09:05:11;;;;;;;4.62;2.52;;;;;;;26.14;17.50;100839.41;1735115;79;20992;-91
2022/05/11 09:07:41;;;;;;;3.42;2.67;;;;;;;26.12;18.10;100831.22;1710668;82;20893;-90
2022/05/11 09:10:08;;;;;;;2.33;1.80;;;;;;;26.18;17.92;100830.47;1736167;82;20952;-90
2022/05/11 09:12:36;;;;;;;2.08;1.25;;;;;;;26.34;17.83;100837.47;1712089;82;21463;-90
2022/05/11 09:15:05;;;;;;;4.12;1.50;;;;;;;26.54;17.67;100821.02;1736766;82;21148;-91
2022/05/11 09:17:38;;;;;;;2.98;1.55;;;;;;;26.85;17.25;100823.92;1737063;81;20928;-88
2022/05/11 09:20:20;;;;;;;3.33;1.98;;;;;;;27.09;17.48;100818.11;1713049;82;21047;-87
2022/05/11 09:22:59;;;;;;;2.90;1.20;;;;;;;27.29;17.10;100822.84;1712560;82;20957;-88
2022/05/11 09:25:38;;;;;;;3.35;1.50;;;;;;;27.45;17.34;100816.30;1737216;82;20980;-91
2022/05/11 09:28:31;;;;;;;6.20;2.52;;;;;;;27.49;17.16;100817.58;1713007;82;21266;-89
2022/05/11 09:31:08;;;;;;;7.92;4.00;;;;;;;27.50;17.69;100816.53;1737215;82;21410;-93
2022/05/11 09:33:59;;;;;;;9.43;1.82;;;;;;;27.59;18.37;100810.47;1737532;79;20961;-93
2022/05/11 09:39:16;;;;;;;3.27;1.63;;;;;;;27.63;17.12;100807.17;1689598;85;20928;-93
2022/05/11 09:41:49;;;;;;;16.93;8.43;;;;;;;27.69;16.42;100807.72;1689270;84;21208;-89
2022/05/11 09:44:29;;;;;;;10.23;2.87;;;;;;;27.65;17.77;100808.33;1664057;84;20971;-91
2022/05/11 09:47:01;;;;;;;6.72;2.10;;;;;;;27.80;17.82;100798.77;1668116;84;21078;-91
2022/05/11 09:49:35;;;;;;;5.87;2.72;;;;;;;27.98;17.58;100807.67;1690165;82;20923;-92
2022/05/11 09:52:07;;;;;;;5.87;1.90;;;;;;;28.15;17.44;100802.23;1689126;85;21015;-93
2022/05/11 09:54:48;;;;;;;6.25;2.40;;;;;;;28.27;17.52;100805.16;1688754;85;21255;-91
2022/05/11 09:57:27;;;;;;;3.85;1.92;;;;;;;28.28;16.91;100797.36;1688722;84;21014;-91
2022/05/11 09:59:52;;;;;;;7.00;2.50;;;;;;;28.19;17.14;100798.10;1689261;85;20935;-90
2022/05/11 10:02:30;;;;;;;5.70;1.92;;;;;;;28.22;18.18;100799.03;1688568;85;20919;-91
2022/05/11 10:08:34;;;;;;;8.85;2.37;;;;;;;28.28;17.13;100802.27;1633321;87;21087;-92
2022/05/11 10:11:18;;;;;;;14.53;2.58;;;;;;;28.09;17.18;100785.52;1635421;87;21074;-90
2022/05/11 10:21:50;;;;;;;3.50;1.47;;;;;;;27.96;17.30;100791.69;1636415;87;24832;-91
2022/05/11 10:22:36;;;;;;;12.82;4.20;;;;;;;27.52;17.40;100788.05;1636815;87;21188;-93
2022/05/11 10:25:16;;;;;;;10.35;3.90;;;;;;;27.60;17.68;100794.11;1636310;87;21647;-93
2022/05/11 10:28:06;;;;;;;18.00;3.77;;;;;;;27.73;17.31;100790.65;1633899;86;20896;-93
2022/05/11 10:31:00;;;;;;;5.62;2.00;;;;;;;27.78;17.40;100793.56;1589670;89;21053;-91
2022/05/11 10:34:21;;;;;;;6.20;2.40;;;;;;;27.85;17.41;100780.97;1561239;90;20977;-90
2022/05/11 10:37:15;;;;;;;8.68;4.47;;;;;;;28.05;17.17;100779.69;1622359;88;21119;-91
2022/05/11 10:40:15;;;;;;;7.67;4.03;;;;;;;28.13;16.95;100788.64;1594603;89;21047;-91
2022/05/11 10:43:07;;;;;;;5.35;2.33;;;;;;;28.04;17.27;100786.13;1584849;90;21071;-90
2022/05/11 10:45:49;;;;;;;6.12;2.92;;;;;;;28.15;17.61;100783.36;1544855;93;20996;-91
2022/05/11 10:48:39;;;;;;;6.20;3.22;;;;;;;28.34;16.90;100792.51;1544588;92;20904;-90
2022/05/11 10:51:50;;;;;;;8.50;2.22;;;;;;;28.28;16.56;100790.63;1545374;92;21941;-89
2022/05/11 10:54:29;;;;;;;4.03;2.52;;;;;;;28.13;16.62;100780.03;1491361;96;21083;-91
2022/05/11 10:57:18;;;;;;;3.65;1.80;;;;;;;28.02;16.53;100789.54;1489944;96;21078;-92
2022/05/11 11:00:21;;;;;;;5.28;2.33;;;;;;;27.85;16.38;100775.58;1491771;96;20970;-94
2022/05/11 11:03:11;;;;;;;3.90;1.67;;;;;;;27.69;17.27;100790.20;1473134;96;20938;-93
2022/05/11 11:09:53;;;;;;;8.60;3.92;;;;;;;27.52;17.25;100787.53;1543773;93;20911;-91
2022/05/11 11:13:12;;;;;;;12.20;2.17;;;;;;;27.46;16.89;100770.84;1544188;93;21498;-93
2022/05/11 11:15:42;;;;;;;4.03;2.37;;;;;;;27.37;16.98;100778.25;1543452;91;21532;-90
2022/05/11 11:18:12;;;;;;;7.00;2.77;;;;;;;27.28;17.74;100772.71;1553753;91;20982;-92
2022/05/11 11:20:43;;;;;;;6.67;3.00;;;;;;;27.23;17.42;100767.89;1563893;91;21557;-92
2022/05/11 11:23:22;;;;;;;6.75;5.15;;;;;;;27.16;18.03;100772.91;1564218;91;21089;-90
2022/05/11 11:26:00;;;;;;;4.75;3.45;;;;;;;26.93;17.44;100779.37;1581153;90;21002;-88
2022/05/11 11:28:31;;;;;;;10.60;3.30;;;;;;;26.76;17.33;100780.69;1589231;90;21108;-90
2022/05/11 11:31:04;;;;;;;10.35;4.87;;;;;;;26.55;17.88;100774.80;1587541;90;21002;-91
2022/05/11 11:33:34;;;;;;;8.55;5.17;;;;;;;26.41;17.79;100774.67;1593636;90;21195;-91
2022/05/11 11:36:06;;;;;;;7.05;3.72;;;;;;;26.14;18.01;100772.73;1594406;88;21079;-92
2022/05/11 11:38:44;;;;;;;8.33;3.92;;;;;;;25.92;18.52;100770.52;1594509;88;21024;-91
2022/05/11 11:41:28;;;;;;;7.28;2.83;;;;;;;25.79;18.06;100767.12;1593933;88;21027;-91
2022/05/11 11:44:08;;;;;;;7.35;2.37;;;;;;;25.47;18.61;100763.84;1594537;88;20965;-92
2022/05/11 11:46:44;;;;;;;4.95;3.02;;;;;;;25.23;18.72;100771.66;1583412;88;21538;-93
2022/05/11 11:49:24;;;;;;;9.25;3.15;;;;;;;24.89;18.96;100763.59;1593784;89;21128;-93
2022/05/11 11:52:00;;;;;;;4.95;3.85;;;;;;;24.61;19.09;100768.70;1593247;90;20981;-92
2022/05/11 11:54:43;;;;;;;5.22;3.10;;;;;;;24.26;19.55;100769.63;1593145;90;21028;-92
2022/05/11 11:57:24;;;;;;;9.05;2.25;;;;;;;23.92;19.54;100768.16;1593160;89;21094;-90
2022/05/11 11:59:57;;;;;;;4.15;2.12;;;;;;;23.53;19.65;100769.47;1593173;90;21573;-93
2022/05/11 12:02:39;;;;;;;14.25;3.20;;;;;;;23.17;20.38;100776.61;1573019;90;20975;-91
2022/05/11 12:05:37;;;;;;;7.50;3.05;;;;;;;22.94;20.54;100767.06;1598250;85;21122;-92
2022/05/11 12:16:53;;;;;;;5.37;1.80;;;;;;;22.28;21.22;100763.58;1680726;85;20998;-90
2022/05/11 12:19:23;;;;;;;3.15;1.85;;;;;;;22.05;21.37;100762.81;1648969;87;21459;-92
2022/05/11 12:22:15;;;;;;;7.62;2.47;;;;;;;21.88;21.63;100771.30;1649269;87;20927;-91
2022/05/11 12:24:45;;;;;;;3.90;2.80;;;;;;;21.81;21.89;100766.27;1648893;87;21472;-93
2022/05/11 12:27:23;;;;;;;3.80;1.70;;;;;;;21.75;21.95;100775.42;1648961;87;21163;-93
2022/05/11 12:30:00;;;;;;;8.00;3.87;;;;;;;21.65;22.19;100770.20;1624976;87;20923;-92
2022/05/11 12:32:36;;;;;;;4.72;2.10;;;;;;;21.55;22.52;100776.17;1649521;87;20963;-92
2022/05/11 12:35:17;;;;;;;6.37;2.98;;;;;;;21.44;22.22;100768.78;1648991;87;20963;-91
2022/05/11 12:37:43;;;;;;;7.37;2.47;;;;;;;21.34;22.73;100770.68;1648529;86;20923;-92
2022/05/11 12:40:15;;;;;;;9.35;2.77;;;;;;;21.29;22.57;100764.99;1648478;87;21441;-91
2022/05/11 12:42:48;;;;;;;5.25;2.47;;;;;;;21.21;23.02;100775.14;1649207;87;20959;-92